Time;durP1;ratioP1;P1;durP2;ratioP2;P2;SDS_P1;SDS_P2;PMS_P1;PMS_P2;Temp;Humidity;BMP_temperature;BMP_pressure;BME280_temperature;BME280_humidity;BME280_pressure;Samples;Min_cycle;Max_cycle;Signal;HPM_P1;HPM_P2
2022/08/06 00:01:40;;;;;;;8.98;2.80;;;11.80;99.90;;;;;;5091875;28;20450;-64
2022/08/06 00:04:05;;;;;;;4.95;2.78;;;11.80;99.90;;;;;;5083459;28;20051;-64
2022/08/06 00:06:31;;;;;;;9.93;2.40;;;11.80;99.90;;;;;;5103048;28;20089;-64
2022/08/06 00:08:57;;;;;;;4.60;2.30;;;11.80;99.90;;;;;;5104104;28;20052;-64
2022/08/06 00:11:23;;;;;;;6.03;2.30;;;11.90;99.90;;;;;;5087295;28;20039;-64
2022/08/06 00:13:48;;;;;;;5.90;2.63;;;11.90;99.90;;;;;;5068897;28;20047;-64
2022/08/06 00:16:14;;;;;;;6.68;2.53;;;11.80;99.90;;;;;;5097395;28;20048;-64
2022/08/06 00:18:40;;;;;;;4.85;2.20;;;11.90;99.90;;;;;;5086335;28;20052;-64
2022/08/06 00:21:06;;;;;;;6.30;2.85;;;11.90;99.90;;;;;;5091124;28;20040;-64
2022/08/06 00:23:31;;;;;;;5.15;2.38;;;11.80;99.90;;;;;;5086456;28;20055;-64
2022/08/06 00:25:57;;;;;;;4.70;2.40;;;11.60;99.90;;;;;;5085773;28;20071;-64
2022/08/06 00:28:24;;;;;;;5.20;2.80;;;11.60;99.90;;;;;;5078957;28;20119;-64
2022/08/06 00:30:50;;;;;;;6.75;2.22;;;11.50;99.90;;;;;;5102402;28;20064;-64
2022/08/06 00:33:15;;;;;;;4.38;2.30;;;11.50;99.90;;;;;;5084435;28;20292;-64
2022/08/06 00:35:42;;;;;;;3.60;2.15;;;11.40;99.90;;;;;;5103099;28;20028;-64
2022/08/06 00:38:08;;;;;;;4.55;2.03;;;11.40;99.90;;;;;;5086057;28;20044;-64
2022/08/06 00:40:33;;;;;;;8.60;2.72;;;11.30;99.90;;;;;;5077769;28;20056;-64
2022/08/06 00:43:02;;;;;;;11.27;3.45;;;11.20;99.90;;;;;;5078061;28;20048;-64
2022/08/06 00:45:33;;;;;;;4.13;2.20;;;11.30;99.90;;;;;;5077430;28;20048;-65
2022/08/06 00:47:59;;;;;;;3.72;2.47;;;11.10;99.90;;;;;;5104784;28;20040;-64
2022/08/06 00:50:25;;;;;;;3.47;2.50;;;11.10;99.90;;;;;;5096103;28;20119;-64
2022/08/06 00:52:51;;;;;;;7.10;3.03;;;11.20;99.90;;;;;;5102280;28;20051;-64
2022/08/06 00:55:17;;;;;;;6.07;3.60;;;11.20;99.90;;;;;;5102896;28;20036;-64
2022/08/06 00:57:43;;;;;;;5.85;3.45;;;11.20;99.90;;;;;;5100481;28;20043;-64
2022/08/06 01:00:09;;;;;;;5.88;3.45;;;11.20;99.90;;;;;;5083691;28;20054;-64
2022/08/06 01:02:35;;;;;;;5.75;3.03;;;11.20;99.90;;;;;;5080502;28;20055;-64
2022/08/06 01:05:01;;;;;;;6.32;3.00;;;11.20;99.90;;;;;;5088327;28;20048;-64
2022/08/06 01:07:27;;;;;;;7.90;3.03;;;11.20;99.90;;;;;;5081423;28;20458;-64
2022/08/06 01:09:52;;;;;;;4.22;2.58;;;11.20;99.90;;;;;;5082931;28;20056;-64
2022/08/06 01:12:18;;;;;;;7.53;2.92;;;11.20;99.90;;;;;;5093894;28;20040;-64
2022/08/06 01:14:44;;;;;;;5.15;2.60;;;11.20;99.90;;;;;;5077117;28;20431;-64
2022/08/06 01:17:39;;;;;;;6.38;2.90;;;11.20;99.90;;;;;;5078969;28;20196;-64
2022/08/06 01:20:50;;;;;;;3.97;2.60;;;11.30;99.90;;;;;;5084431;28;20036;-64
2022/08/06 01:23:52;;;;;;;4.68;2.47;;;11.20;99.90;;;;;;4985355;28;20054;-64
2022/08/06 01:26:26;;;;;;;6.57;2.55;;;11.20;99.90;;;;;;5011725;28;20054;-64
2022/08/06 01:29:05;;;;;;;4.35;2.53;;;11.00;99.90;;;;;;5005075;28;20162;-64
2022/08/06 01:31:43;;;;;;;5.05;2.90;;;10.80;99.90;;;;;;4986077;28;20135;-64
2022/08/06 01:34:39;;;;;;;3.92;2.75;;;10.70;99.90;;;;;;5021037;28;20098;-64
2022/08/06 01:37:12;;;;;;;4.03;2.85;;;10.60;99.90;;;;;;5008384;28;20054;-64
2022/08/06 01:39:40;;;;;;;6.63;3.00;;;10.60;99.90;;;;;;5001839;28;20046;-65
2022/08/06 01:42:09;;;;;;;4.35;3.28;;;10.40;99.90;;;;;;5003265;28;20050;-64
2022/08/06 01:44:38;;;;;;;5.78;2.70;;;10.40;99.90;;;;;;5007889;28;20038;-64
2022/08/06 01:47:10;;;;;;;5.22;2.67;;;10.40;99.90;;;;;;4996017;28;20126;-64
2022/08/06 01:49:39;;;;;;;5.55;3.40;;;10.20;99.90;;;;;;5024915;28;20057;-64
2022/08/06 01:52:07;;;;;;;4.97;2.70;;;10.20;99.90;;;;;;5002653;28;20051;-64
2022/08/06 01:54:38;;;;;;;6.63;3.33;;;10.20;99.90;;;;;;5007862;28;20110;-64
2022/08/06 01:57:06;;;;;;;5.90;3.17;;;10.30;99.90;;;;;;5006645;28;20065;-64
2022/08/06 01:59:36;;;;;;;6.13;3.05;;;10.40;99.90;;;;;;5046788;28;20109;-64
2022/08/06 02:02:10;;;;;;;5.63;3.03;;;10.40;99.90;;;;;;5083022;28;20435;-64
2022/08/06 02:04:41;;;;;;;9.68;3.60;;;10.50;99.90;;;;;;5076356;28;20553;-64
2022/08/06 02:07:10;;;;;;;4.88;2.97;;;10.60;99.90;;;;;;5103663;28;20060;-64
2022/08/06 02:09:37;;;;;;;6.05;3.15;;;10.50;99.90;;;;;;5105293;28;20095;-64
2022/08/06 02:12:09;;;;;;;6.15;3.10;;;10.40;99.90;;;;;;5079142;28;20509;-64
2022/08/06 02:14:40;;;;;;;5.78;2.70;;;10.40;99.90;;;;;;5089298;28;20052;-64
2022/08/06 02:17:07;;;;;;;6.00;3.33;;;10.30;99.90;;;;;;5104753;28;20047;-64
2022/08/06 02:19:34;;;;;;;3.63;3.00;;;10.40;99.90;;;;;;5088141;28;20054;-64
2022/08/06 02:22:02;;;;;;;5.07;3.10;;;10.30;99.90;;;;;;5101978;28;20047;-64
2022/08/06 02:24:30;;;;;;;4.90;3.67;;;10.30;99.90;;;;;;5084926;28;20048;-64
2022/08/06 02:26:58;;;;;;;6.03;3.20;;;10.30;99.90;;;;;;5078031;28;20060;-64
2022/08/06 02:29:26;;;;;;;6.88;3.72;;;10.30;99.90;;;;;;5105184;28;20143;-64
2022/08/06 02:31:53;;;;;;;8.63;3.75;;;10.30;99.90;;;;;;5091745;28;20059;-64
2022/08/06 02:34:20;;;;;;;6.65;3.72;;;10.30;99.90;;;;;;5097789;28;20055;-64
2022/08/06 02:37:12;;;;;;;8.60;3.72;;;10.20;99.90;;;;;;5084898;28;20311;-64
2022/08/06 02:39:48;;;;;;;4.75;3.40;;;10.30;99.90;;;;;;5100775;28;20079;-64
2022/08/06 02:42:30;;;;;;;4.90;3.47;;;10.30;99.90;;;;;;5105216;28;20052;-64
2022/08/06 02:45:08;;;;;;;6.95;3.40;;;10.30;99.90;;;;;;5083472;28;20048;-64
2022/08/06 02:47:48;;;;;;;5.30;4.00;;;10.30;99.90;;;;;;5081659;28;20055;-64
2022/08/06 02:50:17;;;;;;;7.95;3.80;;;10.30;99.90;;;;;;5101341;28;20408;-64
2022/08/06 02:52:52;;;;;;;5.30;3.30;;;10.20;99.90;;;;;;5084692;28;20040;-64
2022/08/06 02:55:22;;;;;;;4.18;3.63;;;10.20;99.90;;;;;;5105195;28;20044;-64
2022/08/06 02:58:19;;;;;;;7.65;3.45;;;10.10;99.90;;;;;;5101186;28;20044;-64
2022/08/06 03:00:48;;;;;;;5.40;3.72;;;10.10;99.90;;;;;;5097779;28;20040;-64
2022/08/06 03:03:16;;;;;;;5.65;3.50;;;10.10;99.90;;;;;;5100456;28;20055;-64
2022/08/06 03:05:45;;;;;;;7.07;3.92;;;10.00;99.90;;;;;;5098020;28;20089;-64
2022/08/06 03:08:15;;;;;;;4.47;3.70;;;10.10;99.90;;;;;;5073833;28;20102;-64
2022/08/06 03:10:42;;;;;;;6.82;3.92;;;10.10;99.90;;;;;;5098990;28;20051;-64
2022/08/06 03:13:10;;;;;;;6.90;3.95;;;10.10;99.90;;;;;;5087330;28;20047;-64
2022/08/06 03:15:37;;;;;;;4.13;3.70;;;10.00;99.90;;;;;;5105469;28;20062;-64
2022/08/06 03:18:05;;;;;;;8.25;3.90;;;10.10;99.90;;;;;;5082446;28;20135;-64
2022/08/06 03:20:33;;;;;;;5.97;3.50;;;10.20;99.90;;;;;;5078071;28;20040;-64
2022/08/06 03:23:02;;;;;;;6.78;4.22;;;10.20;99.90;;;;;;5105266;28;20072;-64
2022/08/06 03:25:29;;;;;;;7.00;4.30;;;10.10;99.90;;;;;;5083297;28;20079;-64
2022/08/06 03:27:57;;;;;;;5.05;4.03;;;10.20;99.90;;;;;;5075889;28;20048;-64
2022/08/06 03:30:23;;;;;;;7.15;4.38;;;10.00;99.90;;;;;;5101365;28;20463;-64
2022/08/06 03:32:50;;;;;;;7.63;4.70;;;9.90;99.90;;;;;;5083089;28;20048;-64
2022/08/06 03:35:16;;;;;;;6.40;4.40;;;9.80;99.90;;;;;;5094262;28;20040;-64
2022/08/06 03:37:43;;;;;;;8.02;4.60;;;9.80;99.90;;;;;;5100200;28;20044;-64
2022/08/06 03:40:10;;;;;;;6.90;4.90;;;9.80;99.90;;;;;;5103054;28;20039;-64
2022/08/06 03:42:36;;;;;;;5.70;4.47;;;9.80;99.90;;;;;;5053715;28;20348;-64
2022/08/06 03:45:03;;;;;;;5.78;4.60;;;9.80;99.90;;;;;;5099425;28;20047;-64
2022/08/06 03:47:47;;;;;;;6.93;5.22;;;9.70;99.90;;;;;;5103847;28;20044;-64
2022/08/06 03:50:20;;;;;;;8.25;4.93;;;9.70;99.90;;;;;;5105158;28;20049;-64
2022/08/06 03:53:04;;;;;;;7.15;5.25;;;9.80;99.90;;;;;;5080072;28;20330;-64
2022/08/06 03:55:33;;;;;;;6.05;5.10;;;9.80;99.90;;;;;;5097011;28;20079;-64
2022/08/06 03:58:02;;;;;;;5.75;4.57;;;9.80;99.90;;;;;;5076830;28;20041;-64
2022/08/06 04:00:33;;;;;;;6.53;5.00;;;9.80;99.90;;;;;;5069089;28;20052;-64
2022/08/06 04:02:58;;;;;;;;;;;9.70;99.90;;;;;;5080140;28;20119;-64
2022/08/06 04:05:28;;;;;;;9.95;5.55;;;9.60;99.90;;;;;;5100226;28;19920;-64
2022/08/06 04:07:56;;;;;;;6.40;4.93;;;9.60;99.90;;;;;;5101177;28;20040;-64
2022/08/06 04:10:43;;;;;;;11.50;5.75;;;9.60;99.90;;;;;;5084968;28;20044;-64
2022/08/06 04:13:12;;;;;;;7.55;4.47;;;9.70;99.90;;;;;;5101962;28;20083;-64
2022/08/06 04:15:39;;;;;;;6.45;5.00;;;9.70;99.90;;;;;;5101815;28;20488;-64
2022/08/06 04:18:11;;;;;;;7.78;5.13;;;9.80;99.90;;;;;;5098992;28;20040;-64
2022/08/06 04:20:40;;;;;;;7.20;4.72;;;9.70;99.90;;;;;;5101302;28;20059;-64
2022/08/06 04:23:06;;;;;;;6.70;5.32;;;9.90;99.90;;;;;;5101400;28;20258;-64
2022/08/06 04:25:38;;;;;;;8.25;5.57;;;9.90;99.90;;;;;;5104873;28;20050;-64
2022/08/06 04:28:05;;;;;;;8.05;5.38;;;9.90;99.90;;;;;;5097423;28;20063;-64
2022/08/06 04:30:32;;;;;;;5.50;5.00;;;9.80;99.90;;;;;;5096620;28;20066;-64
2022/08/06 04:33:01;;;;;;;7.10;5.85;;;9.70;99.90;;;;;;5104037;28;20146;-64
2022/08/06 04:35:29;;;;;;;6.30;5.20;;;9.80;99.90;;;;;;5076319;28;20045;-64
2022/08/06 04:37:56;;;;;;;6.30;4.75;;;9.80;99.90;;;;;;5077569;28;20048;-64
2022/08/06 04:40:23;;;;;;;7.88;6.07;;;9.80;99.90;;;;;;5101055;28;20039;-64
2022/08/06 04:42:49;;;;;;;8.65;5.63;;;9.80;99.90;;;;;;5084850;28;20052;-64
2022/08/06 04:45:15;;;;;;;9.18;6.10;;;9.80;99.90;;;;;;5083538;28;20083;-64
2022/08/06 04:47:42;;;;;;;6.93;5.47;;;10.00;99.90;;;;;;5086927;28;20113;-64
2022/08/06 04:50:10;;;;;;;7.30;5.97;;;10.10;99.90;;;;;;5067051;28;20055;-64
2022/08/06 04:52:36;;;;;;;7.18;5.50;;;10.20;99.90;;;;;;5083536;28;20048;-64
2022/08/06 04:55:02;;;;;;;8.38;6.22;;;10.30;99.90;;;;;;5084732;28;20047;-64
2022/08/06 04:57:27;;;;;;;6.70;5.60;;;10.30;99.90;;;;;;5081561;28;20044;-64
2022/08/06 04:59:53;;;;;;;7.38;5.68;;;10.30;99.90;;;;;;5079898;28;20072;-64
2022/08/06 05:02:18;;;;;;;9.80;5.93;;;10.40;99.90;;;;;;5102721;28;20040;-64
2022/08/06 05:04:45;;;;;;;9.60;6.65;;;10.40;99.90;;;;;;5080009;28;20089;-64
2022/08/06 05:07:21;;;;;;;9.27;5.78;;;10.50;99.90;;;;;;5078709;28;20063;-64
2022/08/06 05:09:48;;;;;;;9.90;6.25;;;10.60;99.90;;;;;;5083289;28;20048;-64
2022/08/06 05:12:23;;;;;;;12.43;7.00;;;10.70;99.90;;;;;;5084584;28;20059;-64
2022/08/06 05:15:07;;;;;;;8.57;6.30;;;10.70;99.90;;;;;;5089825;28;20044;-64
2022/08/06 05:17:38;;;;;;;7.97;6.20;;;10.80;99.90;;;;;;5090924;28;20052;-64
2022/08/06 05:20:15;;;;;;;7.93;6.38;;;10.90;99.90;;;;;;5099324;28;20047;-64
2022/08/06 05:22:42;;;;;;;6.70;6.00;;;11.00;99.90;;;;;;5081864;28;20412;-64
2022/08/06 05:25:09;;;;;;;9.15;6.15;;;11.10;99.90;;;;;;5096206;28;20079;-64
2022/08/06 05:27:34;;;;;;;9.25;6.03;;;11.20;99.90;;;;;;5084736;28;20056;-64
2022/08/06 05:30:02;;;;;;;8.88;6.15;;;11.30;99.90;;;;;;5107925;28;20043;-64
2022/08/06 05:32:28;;;;;;;6.93;5.88;;;11.30;99.90;;;;;;5096894;28;20127;-64
2022/08/06 05:34:54;;;;;;;6.25;5.15;;;11.40;99.90;;;;;;5080046;28;20044;-64
2022/08/06 05:37:19;;;;;;;9.07;5.63;;;11.50;99.90;;;;;;5083276;28;20044;-64
2022/08/06 05:39:45;;;;;;;9.38;5.90;;;11.60;99.90;;;;;;5106191;28;20063;-64
2022/08/06 05:42:11;;;;;;;5.50;4.97;;;11.60;99.90;;;;;;5085828;28;20048;-64
2022/08/06 05:44:37;;;;;;;5.57;5.00;;;11.70;99.90;;;;;;5085027;28;20059;-64
2022/08/06 05:47:06;;;;;;;6.25;5.45;;;11.80;99.90;;;;;;5100750;28;20066;-64
2022/08/06 05:49:42;;;;;;;8.50;5.00;;;11.90;99.90;;;;;;5078807;28;20055;-64
2022/08/06 05:52:23;;;;;;;5.13;4.60;;;12.00;99.90;;;;;;5103205;28;20450;-64
2022/08/06 05:55:01;;;;;;;8.10;5.00;;;12.00;99.90;;;;;;5078361;28;20050;-64
2022/08/06 05:57:42;;;;;;;8.48;5.35;;;12.10;99.90;;;;;;5072583;28;20074;-64
2022/08/06 06:00:14;;;;;;;6.13;4.53;;;12.20;99.90;;;;;;5074096;28;20048;-64
2022/08/06 06:02:44;;;;;;;6.72;4.03;;;12.30;99.90;;;;;;5099617;28;20040;-64
2022/08/06 06:05:11;;;;;;;13.80;4.28;;;12.40;99.90;;;;;;5088210;28;20051;-64
2022/08/06 06:07:37;;;;;;;5.43;4.00;;;12.50;99.90;;;;;;5088007;28;20060;-64
2022/08/06 06:10:05;;;;;;;4.50;3.30;;;12.60;99.90;;;;;;5106588;28;20044;-64
2022/08/06 06:12:32;;;;;;;7.88;3.90;;;12.60;99.90;;;;;;5085955;28;20084;-64
2022/08/06 06:14:59;;;;;;;4.90;3.47;;;12.70;99.90;;;;;;5106732;28;20079;-64
2022/08/06 06:17:46;;;;;;;5.35;3.60;;;12.80;99.90;;;;;;5103045;28;20056;-64
2022/08/06 06:20:30;;;;;;;6.65;3.15;;;12.90;99.90;;;;;;5086677;28;20097;-64
2022/08/06 06:23:10;;;;;;;4.38;2.55;;;13.10;99.90;;;;;;5085814;28;20040;-64
2022/08/06 06:25:48;;;;;;;3.53;2.60;;;13.10;99.90;;;;;;5104266;28;20036;-64
2022/08/06 06:28:34;;;;;;;6.78;3.25;;;13.20;99.90;;;;;;5087877;28;20060;-64
2022/08/06 06:31:10;;;;;;;4.43;2.45;;;13.30;99.90;;;;;;5085495;28;20094;-64
2022/08/06 06:33:43;;;;;;;4.15;2.25;;;13.40;99.90;;;;;;5064399;28;20132;-64
2022/08/06 06:36:31;;;;;;;5.20;2.92;;;13.50;99.90;;;;;;5085926;28;20060;-64
2022/08/06 06:39:07;;;;;;;7.38;2.40;;;13.50;99.90;;;;;;5078794;28;20050;-64
2022/08/06 06:41:52;;;;;;;3.55;2.13;;;13.70;99.90;;;;;;5068274;28;20100;-64
2022/08/06 06:44:29;;;;;;;4.90;2.40;;;13.70;99.90;;;;;;5076936;28;20056;-64
2022/08/06 06:47:12;;;;;;;5.53;1.90;;;13.90;99.90;;;;;;5083776;28;20063;-64
2022/08/06 06:49:51;;;;;;;6.35;1.90;;;14.00;99.90;;;;;;5065754;28;20063;-64
2022/08/06 06:52:29;;;;;;;2.55;1.52;;;14.10;99.90;;;;;;5066634;28;20056;-64
2022/08/06 06:55:06;;;;;;;2.20;2.00;;;14.20;99.90;;;;;;5083609;28;20044;-64
2022/08/06 06:57:38;;;;;;;4.63;1.30;;;14.40;99.90;;;;;;5052234;28;20052;-64
2022/08/06 07:00:05;;;;;;;4.22;1.50;;;14.40;99.90;;;;;;5066399;28;20075;-64
2022/08/06 07:02:35;;;;;;;2.47;1.17;;;14.60;99.90;;;;;;5061933;28;20048;-64
2022/08/06 07:05:03;;;;;;;2.92;1.42;;;14.70;99.90;;;;;;5081237;28;20032;-64
2022/08/06 07:07:34;;;;;;;1.95;1.23;;;14.90;99.90;;;;;;5063252;28;20084;-64
2022/08/06 07:10:01;;;;;;;1.88;1.00;;;15.00;99.90;;;;;;5065479;28;20044;-64
2022/08/06 07:12:30;;;;;;;2.53;1.23;;;15.20;99.90;;;;;;5083983;28;20070;-64
2022/08/06 07:14:58;;;;;;;5.17;1.10;;;15.30;99.90;;;;;;5057488;28;20049;-64
2022/08/06 07:17:25;;;;;;;1.70;1.13;;;15.40;99.90;;;;;;5064118;28;20040;-64
2022/08/06 07:19:54;;;;;;;2.95;1.00;;;15.50;99.90;;;;;;5081805;28;20166;-64
2022/08/06 07:22:22;;;;;;;2.05;1.15;;;15.60;99.90;;;;;;5085066;28;20166;-64
2022/08/06 07:24:52;;;;;;;3.13;1.00;;;15.70;99.90;;;;;;5066335;28;20505;-64
2022/08/06 07:27:18;;;;;;;2.28;1.00;;;15.70;99.90;;;;;;5077792;28;20056;-64
2022/08/06 07:29:45;;;;;;;3.20;1.20;;;15.80;99.90;;;;;;5085370;28;20052;-64
2022/08/06 07:32:12;;;;;;;2.65;0.93;;;15.80;99.90;;;;;;5103385;28;20051;-64
2022/08/06 07:34:39;;;;;;;2.38;0.77;;;15.90;99.90;;;;;;5103822;28;20040;-64
2022/08/06 07:37:06;;;;;;;3.08;0.93;;;16.10;99.90;;;;;;5104705;28;20047;-64
2022/08/06 07:39:36;;;;;;;1.83;0.80;;;16.20;99.90;;;;;;5105930;28;20083;-64
2022/08/06 07:42:07;;;;;;;5.60;1.65;;;16.20;99.90;;;;;;5105670;28;20036;-64
2022/08/06 07:44:40;;;;;;;4.32;0.98;;;16.30;99.90;;;;;;5096448;28;20067;-64
2022/08/06 07:47:07;;;;;;;2.25;0.73;;;16.30;99.90;;;;;;5092665;28;20036;-64
2022/08/06 07:49:40;;;;;;;4.78;0.85;;;16.50;99.90;;;;;;5102401;28;20122;-64
2022/08/06 07:52:11;;;;;;;4.22;0.70;;;16.50;99.90;;;;;;5103705;28;20032;-64
2022/08/06 07:54:38;;;;;;;1.90;1.00;;;16.50;99.90;;;;;;5097945;28;20040;-64
2022/08/06 07:57:05;;;;;;;2.28;0.90;;;16.50;99.90;;;;;;5104988;28;20035;-64
2022/08/06 07:59:32;;;;;;;1.67;0.70;;;16.50;99.90;;;;;;5099601;28;20108;-64
2022/08/06 08:02:00;;;;;;;1.67;0.68;;;16.60;99.90;;;;;;5104143;28;20040;-64
2022/08/06 08:07:13;;;;;;;4.45;0.73;;;16.80;99.90;;;;;;5083094;28;20059;-64
2022/08/06 08:09:39;;;;;;;2.97;0.73;;;16.80;99.90;;;;;;5101281;28;20048;-64
2022/08/06 08:12:06;;;;;;;2.78;0.90;;;16.90;99.90;;;;;;5083687;28;20036;-64
2022/08/06 08:14:33;;;;;;;1.65;0.80;;;17.10;99.90;;;;;;5064373;28;20060;-64
2022/08/06 08:16:59;;;;;;;2.63;0.82;;;17.10;99.90;;;;;;5082095;28;20103;-64
2022/08/06 08:19:33;;;;;;;3.20;0.88;;;17.20;99.90;;;;;;5103113;28;20071;-64
2022/08/06 08:22:15;;;;;;;2.03;0.70;;;17.40;99.90;;;;;;5082138;28;20052;-64
2022/08/06 08:24:42;;;;;;;2.92;0.70;;;17.50;99.90;;;;;;5080942;28;20504;-64
2022/08/06 08:27:10;;;;;;;2.60;0.70;;;17.50;99.90;;;;;;5084908;28;20059;-64
2022/08/06 08:29:38;;;;;;;6.38;1.30;;;17.60;99.90;;;;;;5060147;28;20052;-64
2022/08/06 08:32:05;;;;;;;1.85;0.80;;;17.50;99.90;;;;;;5061206;28;20036;-64
2022/08/06 08:34:31;;;;;;;2.60;1.00;;;17.60;99.90;;;;;;5077625;28;20685;-64
2022/08/06 08:36:58;;;;;;;1.83;0.93;;;17.70;99.90;;;;;;5058113;28;20041;-64
2022/08/06 08:39:23;;;;;;;3.40;0.70;;;17.90;99.90;;;;;;5083502;28;20043;-64
2022/08/06 08:41:52;;;;;;;4.35;1.05;;;18.10;99.90;;;;;;5080885;28;20037;-64
2022/08/06 08:44:27;;;;;;;1.98;0.90;;;18.20;99.90;;;;;;5063115;28;20144;-64
2022/08/06 08:46:57;;;;;;;1.48;0.73;;;18.30;99.90;;;;;;5056746;28;20128;-64
2022/08/06 08:49:37;;;;;;;3.45;0.90;;;18.30;99.90;;;;;;5081097;28;20057;-64
2022/08/06 08:52:08;;;;;;;2.60;0.80;;;18.30;99.90;;;;;;5060982;28;20051;-64
2022/08/06 08:54:36;;;;;;;4.60;0.88;;;18.10;99.90;;;;;;5082786;28;20040;-64
2022/08/06 08:57:08;;;;;;;3.55;1.00;;;18.00;99.90;;;;;;5052430;28;20045;-64
2022/08/06 08:59:36;;;;;;;4.78;0.82;;;17.90;99.90;;;;;;5073567;28;20040;-64
2022/08/06 09:02:02;;;;;;;3.00;0.90;;;17.90;99.90;;;;;;5054819;28;20053;-64
2022/08/06 09:04:28;;;;;;;1.35;0.88;;;18.00;99.90;;;;;;5083473;28;20396;-64
2022/08/06 09:06:53;;;;;;;1.77;0.80;;;18.00;99.90;;;;;;5064278;28;20072;-64
2022/08/06 09:09:20;;;;;;;2.63;0.77;;;18.10;99.90;;;;;;5062171;28;20056;-64
2022/08/06 09:11:46;;;;;;;2.65;0.80;;;18.30;99.90;;;;;;5064440;28;20047;-64
2022/08/06 09:14:12;;;;;;;1.80;0.75;;;18.40;99.90;;;;;;5052158;28;20066;-64
2022/08/06 09:16:38;;;;;;;4.22;0.95;;;18.50;99.90;;;;;;5065365;28;20040;-64
2022/08/06 09:19:06;;;;;;;3.78;0.88;;;18.40;99.90;;;;;;5064657;28;20043;-64
2022/08/06 09:21:32;;;;;;;2.92;1.05;;;18.40;99.90;;;;;;5063573;28;20048;-64
2022/08/06 09:23:58;;;;;;;2.50;1.05;;;18.50;99.90;;;;;;5058730;28;20107;-65
2022/08/06 09:26:25;;;;;;;2.58;0.88;;;18.40;99.90;;;;;;5077951;28;20054;-64
2022/08/06 09:28:50;;;;;;;4.65;1.38;;;18.40;99.90;;;;;;5103525;28;20052;-65
2022/08/06 09:31:19;;;;;;;5.47;1.10;;;18.40;99.90;;;;;;5100983;28;20121;-64
2022/08/06 09:33:57;;;;;;;4.38;0.80;;;18.30;99.90;;;;;;5101451;28;20044;-64
2022/08/06 09:36:23;;;;;;;4.55;1.10;;;18.40;99.90;;;;;;5097645;28;20051;-64
2022/08/06 09:38:54;;;;;;;5.43;1.02;;;18.40;99.90;;;;;;5092348;28;20082;-64
2022/08/06 09:41:22;;;;;;;3.72;1.20;;;18.50;99.90;;;;;;5101137;28;20052;-64
2022/08/06 09:43:50;;;;;;;3.60;1.20;;;18.40;99.90;;;;;;5102078;28;20055;-64
2022/08/06 09:46:17;;;;;;;3.05;1.02;;;18.50;99.90;;;;;;5100213;28;20079;-64
2022/08/06 09:49:00;;;;;;;5.25;1.38;;;18.50;99.90;;;;;;5095743;28;20094;-64
2022/08/06 09:51:27;;;;;;;3.08;1.30;;;18.70;99.90;;;;;;5088105;28;20322;-64
2022/08/06 09:53:58;;;;;;;4.60;1.23;;;18.80;99.90;;;;;;5102697;28;20039;-64
2022/08/06 09:56:25;;;;;;;2.78;1.52;;;19.00;99.90;;;;;;5098721;28;20434;-64
2022/08/06 09:59:01;;;;;;;1.85;1.10;;;19.20;99.90;;;;;;5084925;28;20125;-64
2022/08/06 10:01:28;;;;;;;2.95;1.50;;;19.30;99.90;;;;;;5099529;28;20414;-64
2022/08/06 10:03:57;;;;;;;3.70;1.63;;;19.40;99.90;;;;;;5097560;28;20075;-64
2022/08/06 10:06:24;;;;;;;2.65;1.50;;;19.50;99.90;;;;;;5102498;28;20066;-64
2022/08/06 10:09:07;;;;;;;2.97;1.60;;;19.50;99.90;;;;;;5105052;28;20052;-64
2022/08/06 10:11:38;;;;;;;4.72;1.90;;;19.40;99.90;;;;;;5100297;28;20049;-64
2022/08/06 10:14:04;;;;;;;4.30;2.05;;;19.40;99.90;;;;;;5103099;28;20111;-64
2022/08/06 10:16:30;;;;;;;4.13;2.03;;;19.40;99.90;;;;;;5106789;28;20092;-64
2022/08/06 10:18:57;;;;;;;3.78;1.75;;;19.30;99.90;;;;;;5099816;28;20153;-64
2022/08/06 10:21:33;;;;;;;10.07;2.58;;;19.30;99.90;;;;;;5085864;28;20041;-64
2022/08/06 10:24:02;;;;;;;4.70;2.00;;;19.30;99.90;;;;;;5102084;28;20076;-64
2022/08/06 10:26:30;;;;;;;4.13;1.58;;;19.40;99.90;;;;;;5102124;28;20056;-65
2022/08/06 10:29:04;;;;;;;3.70;1.50;;;19.40;99.90;;;;;;5104614;28;20122;-64
2022/08/06 10:31:32;;;;;;;4.85;1.50;;;19.50;99.90;;;;;;5101506;28;20044;-64
2022/08/06 10:34:08;;;;;;;2.95;1.60;;;19.50;99.90;;;;;;5099899;28;20044;-64
2022/08/06 10:36:43;;;;;;;3.75;1.20;;;19.60;99.90;;;;;;5104240;28;20051;-64
2022/08/06 10:39:09;;;;;;;4.82;1.20;;;19.80;99.90;;;;;;5100665;28;20059;-65
2022/08/06 10:41:38;;;;;;;1.45;0.98;;;19.80;99.90;;;;;;5095500;28;20052;-64
2022/08/06 10:44:05;;;;;;;7.67;1.67;;;19.80;99.90;;;;;;5090367;28;20550;-65
2022/08/06 10:46:32;;;;;;;4.15;1.40;;;19.80;99.90;;;;;;5103595;28;20286;-64
2022/08/06 10:48:58;;;;;;;3.38;1.52;;;19.80;99.90;;;;;;5099052;28;20045;-65
2022/08/06 10:51:26;;;;;;;3.97;1.60;;;19.70;99.90;;;;;;5095846;28;20098;-64
2022/08/06 10:53:53;;;;;;;2.95;1.40;;;19.70;99.90;;;;;;5101612;28;20062;-65
2022/08/06 10:56:19;;;;;;;2.50;1.23;;;19.70;99.90;;;;;;5104487;28;20044;-65
2022/08/06 10:58:45;;;;;;;5.95;1.50;;;19.80;99.90;;;;;;5105682;28;20043;-65
2022/08/06 11:01:19;;;;;;;3.05;1.90;;;19.90;99.90;;;;;;5099041;28;20048;-64
2022/08/06 11:03:58;;;;;;;2.15;1.63;;;20.00;99.90;;;;;;5099779;28;20047;-64
2022/08/06 11:06:36;;;;;;;1.73;1.27;;;20.20;99.90;;;;;;5098639;28;20048;-64
2022/08/06 11:09:29;;;;;;;2.63;1.60;;;20.40;99.90;;;;;;5101962;28;20040;-64
2022/08/06 11:12:03;;;;;;;2.85;1.45;;;20.50;99.90;;;;;;5104468;28;20084;-64
2022/08/06 11:14:31;;;;;;;2.90;1.50;;;20.70;99.90;;;;;;5086392;28;20041;-64
2022/08/06 11:16:59;;;;;;;6.28;1.58;;;20.70;99.90;;;;;;5101314;28;20063;-65
2022/08/06 11:19:39;;;;;;;3.50;1.63;;;20.80;99.90;;;;;;5104566;28;20063;-65
2022/08/06 11:22:05;;;;;;;;;;;21.00;99.90;;;;;;5095530;28;20040;-65
2022/08/06 11:24:31;;;;;;;3.60;1.67;;;21.10;99.90;;;;;;5105357;28;19927;-65
2022/08/06 11:26:57;;;;;;;2.55;1.80;;;21.20;99.90;;;;;;5097658;28;20567;-65
2022/08/06 11:29:23;;;;;;;2.80;1.77;;;21.20;99.90;;;;;;5102524;28;20080;-64
2022/08/06 11:31:51;;;;;;;5.07;1.33;;;21.10;99.90;;;;;;5094009;28;20040;-65
2022/08/06 11:34:20;;;;;;;4.55;1.90;;;21.10;99.90;;;;;;5093843;28;20148;-65
2022/08/06 11:36:53;;;;;;;4.97;1.60;;;21.00;99.90;;;;;;5104864;28;20176;-65
2022/08/06 11:39:20;;;;;;;3.33;1.50;;;21.00;99.90;;;;;;5103784;28;20048;-64
2022/08/06 11:41:55;;;;;;;4.72;1.90;;;20.80;99.90;;;;;;5081586;28;20037;-65
2022/08/06 11:44:26;;;;;;;4.10;2.05;;;20.80;99.30;;;;;;5089267;28;20068;-64
2022/08/06 11:47:26;;;;;;;5.20;1.77;;;20.80;99.50;;;;;;5096252;28;20040;-65
2022/08/06 11:49:52;;;;;;;3.50;1.80;;;20.80;97.50;;;;;;5079681;28;20053;-65
2022/08/06 11:52:37;;;;;;;3.38;1.83;;;20.80;97.30;;;;;;5083506;28;20091;-65
2022/08/06 11:55:06;;;;;;;4.28;1.85;;;20.80;98.80;;;;;;5082856;28;20589;-65
2022/08/06 11:57:33;;;;;;;4.68;2.05;;;20.80;99.00;;;;;;5062592;28;20036;-65
2022/08/06 11:59:58;;;;;;;3.80;1.52;;;20.80;99.90;;;;;;5075820;28;20549;-64
2022/08/06 12:02:39;;;;;;;2.90;1.58;;;20.80;99.90;;;;;;5057832;28;20079;-65
2022/08/06 12:05:14;;;;;;;4.68;1.75;;;20.80;99.90;;;;;;5072533;28;20033;-65
2022/08/06 12:07:41;;;;;;;2.65;1.60;;;20.70;99.90;;;;;;5077306;28;20171;-65
2022/08/06 12:10:06;;;;;;;4.05;1.65;;;20.60;99.90;;;;;;5077490;28;20063;-65
2022/08/06 12:12:46;;;;;;;5.60;1.88;;;20.70;99.90;;;;;;5064240;28;20049;-65
2022/08/06 12:15:11;;;;;;;3.58;1.75;;;20.80;99.90;;;;;;5075060;28;20098;-65
2022/08/06 12:17:38;;;;;;;3.47;1.83;;;21.00;99.90;;;;;;5055831;28;20122;-64
2022/08/06 12:20:05;;;;;;;2.90;1.60;;;21.20;99.90;;;;;;5079723;28;20101;-64
2022/08/06 12:22:32;;;;;;;2.97;1.95;;;21.20;99.90;;;;;;5080238;28;20048;-65
2022/08/06 12:25:00;;;;;;;3.30;2.17;;;21.30;99.90;;;;;;5087793;28;20079;-65
2022/08/06 12:27:35;;;;;;;3.85;2.13;;;21.50;99.90;;;;;;5105235;28;20416;-65
2022/08/06 12:30:03;;;;;;;4.60;1.80;;;21.70;98.90;;;;;;5101275;28;20084;-65
2022/08/06 12:32:34;;;;;;;4.18;2.10;;;22.00;99.10;;;;;;5102604;28;20051;-64
2022/08/06 12:35:03;;;;;;;4.03;1.80;;;22.00;98.30;;;;;;5094384;28;20389;-64
2022/08/06 12:37:40;;;;;;;3.23;1.90;;;22.00;98.30;;;;;;5102192;28;20040;-65
2022/08/06 12:40:27;;;;;;;2.72;1.83;;;21.90;98.30;;;;;;5095185;28;20139;-64
2022/08/06 12:42:59;;;;;;;3.75;1.80;;;21.60;97.80;;;;;;5097794;28;20074;-65
2022/08/06 12:45:27;;;;;;;3.22;1.80;;;21.50;98.10;;;;;;5101471;28;20055;-65
2022/08/06 12:47:59;;;;;;;5.10;1.92;;;21.50;98.00;;;;;;5102412;28;20044;-65
2022/08/06 12:50:26;;;;;;;4.28;2.00;;;21.40;97.80;;;;;;5102935;28;20040;-65
2022/08/06 12:53:03;;;;;;;7.75;2.53;;;21.40;98.60;;;;;;5097741;28;20047;-64
2022/08/06 12:55:30;;;;;;;4.90;2.25;;;21.40;97.70;;;;;;5101764;28;20079;-65
2022/08/06 12:57:59;;;;;;;3.63;2.30;;;21.40;98.00;;;;;;5103229;28;20559;-65
2022/08/06 13:00:25;;;;;;;4.05;2.08;;;21.30;98.20;;;;;;5099549;28;20054;-64
2022/08/06 13:02:52;;;;;;;3.17;2.33;;;21.40;98.40;;;;;;5102841;28;20044;-65
2022/08/06 13:05:18;;;;;;;3.65;2.20;;;21.50;98.30;;;;;;5103217;28;20078;-64
2022/08/06 13:07:44;;;;;;;5.65;2.50;;;21.50;98.00;;;;;;5103284;28;20036;-65